Terminal Aerodrome Forecast
Issued by NWS Nashville, TN

Home | Current Version | Previous Version | Text Only | Print | Product List | Glossary On
Versions: 1 2 3 4 5 6 7 8 9 10 11 12 13 14 15 16 17 18 19 20 21 22 23
000
FTUS44 KOHX 011700
TAFCSV
TAF
KCSV 011731Z 0118/0218 09007KT P6SM SCT250
     FM020000 16004KT P6SM SCT100
     FM020900 17010KT P6SM BKN050 BKN070
     FM021300 18012G22KT P6SM VCSH BKN030=

USA.gov is the U.S. government's official web portal to all federal, state and local government web resources and services.